Time;durP1;ratioP1;P1;durP2;ratioP2;P2;SDS_P1;SDS_P2;PMS_P1;PMS_P2;Temp;Humidity;BMP_temperature;BMP_pressure;BME280_temperature;BME280_humidity;BME280_pressure;Samples;Min_cycle;Max_cycle;Signal;HPM_P1;HPM_P2
2023/01/17 06:06:34;;;;;;;1.70;1.30;;;;;;;4.44;88.25;97473.72;4983664;28;20109;-75
2023/01/17 06:09:02;;;;;;;1.38;1.13;;;;;;;4.45;88.04;97484.00;4958434;28;20138;-76
2023/01/17 06:11:30;;;;;;;1.95;1.10;;;;;;;4.45;88.61;97483.19;4951304;28;20054;-76
2023/01/17 06:13:58;;;;;;;1.42;1.20;;;;;;;4.45;88.92;97484.00;4975550;28;20533;-75
2023/01/17 06:33:50;;;;;;;1.40;1.15;;;;;;;4.31;89.45;97507.78;4993597;28;20588;-74
2023/01/17 06:37:18;;;;;;;3.25;1.40;;;;;;;4.22;90.29;97498.94;4980147;28;20080;-74
2023/01/17 06:53:29;;;;;;;4.10;1.50;;;;;;;4.26;89.17;97526.38;4980943;28;20045;-76
2023/01/17 06:55:57;;;;;;;2.13;1.75;;;;;;;4.25;89.13;97542.97;4988147;28;20156;-76
2023/01/17 06:58:25;;;;;;;2.50;2.15;;;;;;;4.24;89.60;97537.91;4990653;28;20060;-75
2023/01/17 07:00:53;;;;;;;3.85;2.28;;;;;;;4.21;89.15;97540.75;4987822;28;20056;-76
2023/01/17 07:03:24;;;;;;;3.65;2.33;;;;;;;4.26;88.91;97556.81;5000483;28;20137;-76
2023/01/17 07:05:52;;;;;;;3.33;1.88;;;;;;;4.27;88.48;97538.44;4991092;28;20050;-74
2023/01/17 07:08:20;;;;;;;3.03;2.10;;;;;;;4.24;88.36;97543.09;4987643;28;20048;-76
2023/01/17 07:10:48;;;;;;;2.83;2.00;;;;;;;4.21;88.15;97544.16;4989664;28;20406;-75
2023/01/17 07:13:15;;;;;;;2.42;2.13;;;;;;;4.24;88.05;97548.31;4992831;28;20544;-76
2023/01/17 07:15:43;;;;;;;2.75;1.98;;;;;;;4.30;88.66;97548.63;4990052;28;20054;-76
2023/01/17 07:18:11;;;;;;;2.10;1.90;;;;;;;4.29;88.56;97564.38;4998126;28;20046;-76
2023/01/17 07:20:40;;;;;;;2.40;1.83;;;;;;;4.25;88.80;97563.81;4997479;28;20510;-76
2023/01/17 07:23:08;;;;;;;2.35;1.80;;;;;;;4.31;88.71;97565.06;4991874;28;20073;-76
2023/01/17 07:25:36;;;;;;;2.30;2.10;;;;;;;4.25;88.22;97589.84;4987217;28;20137;-75
2023/01/17 07:32:30;;;;;;;3.05;1.83;;;;;;;4.25;88.20;97584.63;4995018;28;20689;-75
2023/01/17 07:34:57;;;;;;;1.50;1.40;;;;;;;4.25;87.89;97592.44;4988684;28;20658;-75
2023/01/17 07:37:25;;;;;;;2.22;1.98;;;;;;;4.23;87.07;97629.97;4995355;28;20642;-75
2023/01/17 07:39:53;;;;;;;2.30;2.10;;;;;;;4.22;87.45;97587.47;5003821;28;20058;-75
2023/01/17 07:42:21;;;;;;;2.05;1.67;;;;;;;4.24;87.71;97595.19;4991184;28;20050;-75
2023/01/17 07:44:50;;;;;;;2.47;2.20;;;;;;;4.20;87.58;97597.19;4995157;28;20046;-75
2023/01/17 07:47:18;;;;;;;2.67;1.65;;;;;;;4.20;87.37;97588.56;4953772;28;20530;-75
2023/01/17 07:49:46;;;;;;;2.83;2.08;;;;;;;4.14;88.43;97610.69;4966419;28;20160;-76
2023/01/17 07:52:14;;;;;;;2.70;1.77;;;;;;;4.14;88.01;97620.28;4969826;28;20058;-75
2023/01/17 07:54:44;;;;;;;2.38;2.00;;;;;;;4.12;88.07;97624.81;4957749;28;20102;-75
2023/01/17 07:57:12;;;;;;;2.33;1.73;;;;;;;4.07;88.15;97610.38;4990654;28;20047;-74
2023/01/17 07:59:40;;;;;;;4.10;1.90;;;;;;;4.02;88.79;97612.53;4975197;28;20050;-75
2023/01/17 08:02:19;;;;;;;1.98;1.77;;;;;;;4.05;88.87;97616.66;4969661;28;20050;-74
2023/01/17 08:04:47;;;;;;;2.22;1.67;;;;;;;4.13;88.60;97618.63;4998821;28;20137;-74
2023/01/17 08:07:15;;;;;;;2.65;1.52;;;;;;;4.16;88.18;97615.81;4999022;28;20517;-75
2023/01/17 08:09:48;;;;;;;3.53;1.80;;;;;;;4.18;88.39;97613.88;4994532;28;20054;-75
2023/01/17 08:12:16;;;;;;;2.20;1.67;;;;;;;4.20;87.93;97619.81;4991727;28;20046;-76
2023/01/17 08:14:44;;;;;;;2.50;1.70;;;;;;;4.24;88.68;97610.81;4995150;28;20145;-75
2023/01/17 08:17:15;;;;;;;2.38;1.63;;;;;;;4.20;87.86;97630.22;5000040;28;20049;-76
2023/01/17 08:19:43;;;;;;;2.17;1.88;;;;;;;4.18;88.36;97624.31;4983646;28;20050;-75
2023/01/17 08:22:11;;;;;;;2.22;1.63;;;;;;;4.14;88.64;97630.69;4995425;28;20635;-74
2023/01/17 08:24:39;;;;;;;2.45;1.77;;;;;;;4.19;88.39;97616.38;4993235;28;20110;-74
2023/01/17 08:27:07;;;;;;;1.48;1.30;;;;;;;4.23;87.89;97630.81;4989113;28;20370;-75
2023/01/17 08:29:35;;;;;;;3.72;1.40;;;;;;;4.27;87.54;97631.38;4970515;28;20514;-74
2023/01/17 08:32:03;;;;;;;2.25;1.67;;;;;;;4.25;87.79;97623.69;5001145;28;20058;-74
2023/01/17 08:34:32;;;;;;;2.97;1.65;;;;;;;4.27;87.54;97645.22;4998948;28;20070;-77
2023/01/17 08:36:59;;;;;;;2.00;1.30;;;;;;;4.30;86.96;97631.94;4992187;28;20142;-74
2023/01/17 08:39:27;;;;;;;2.90;1.63;;;;;;;4.30;86.69;97631.13;4983551;28;20430;-76
2023/01/17 08:41:56;;;;;;;4.57;1.50;;;;;;;4.27;86.35;97650.41;4974748;28;20068;-77
2023/01/17 08:44:24;;;;;;;2.85;1.80;;;;;;;4.23;86.62;97646.44;4991451;28;20150;-76
2023/01/17 08:46:51;;;;;;;3.28;1.80;;;;;;;4.26;85.73;97640.13;5005803;28;20050;-76
2023/01/17 08:49:19;;;;;;;2.80;1.45;;;;;;;4.24;86.41;97648.09;4985382;28;20042;-78
2023/01/17 08:51:47;;;;;;;1.63;1.15;;;;;;;4.21;85.35;97668.31;4993672;28;20066;-77
2023/01/17 08:54:16;;;;;;;1.58;1.05;;;;;;;4.26;85.61;97660.97;5014296;28;20062;-77
2023/01/17 08:56:45;;;;;;;1.92;1.20;;;;;;;4.27;85.42;97686.88;5013229;28;20064;-77
2023/01/17 08:59:13;;;;;;;2.83;1.27;;;;;;;4.27;84.72;97658.22;4995019;28;20054;-76
2023/01/17 09:01:44;;;;;;;3.22;1.50;;;;;;;4.35;85.39;97660.22;4987944;28;20042;-77
2023/01/17 09:04:15;;;;;;;2.38;1.40;;;;;;;4.37;84.87;97668.75;4994304;28;20058;-77
2023/01/17 09:06:47;;;;;;;1.42;1.13;;;;;;;4.42;84.36;97673.59;4988032;28;20153;-77
2023/01/17 09:09:16;;;;;;;1.65;1.17;;;;;;;4.39;83.85;97677.25;4995478;28;20046;-77
2023/01/17 09:11:44;;;;;;;3.72;1.42;;;;;;;4.43;83.37;97665.66;4979899;28;20046;-76
2023/01/17 09:14:12;;;;;;;1.98;1.15;;;;;;;4.44;83.72;97676.88;4985068;28;20057;-76
2023/01/17 09:16:40;;;;;;;6.18;1.42;;;;;;;4.46;82.82;97686.25;5002218;28;20050;-77
2023/01/17 09:19:08;;;;;;;1.50;1.15;;;;;;;4.45;83.88;97689.78;4987340;28;20131;-76
2023/01/17 09:21:36;;;;;;;1.35;0.90;;;;;;;4.45;82.69;97687.16;4998897;28;20060;-77
2023/01/17 09:24:04;;;;;;;2.15;1.00;;;;;;;4.49;82.54;97706.81;4997075;28;20058;-77
2023/01/17 09:26:32;;;;;;;6.78;1.20;;;;;;;4.49;81.78;97700.78;5006471;28;20065;-77
2023/01/17 09:29:00;;;;;;;1.50;0.90;;;;;;;4.52;82.03;97709.19;5007304;28;20052;-77
2023/01/17 09:31:28;;;;;;;4.00;1.15;;;;;;;4.51;81.44;97711.91;5005279;28;20232;-77
2023/01/17 09:33:57;;;;;;;1.85;0.90;;;;;;;4.49;81.48;97688.59;4986216;28;20054;-77
2023/01/17 09:36:32;;;;;;;2.47;0.82;;;;;;;4.56;80.08;97699.34;4993703;28;20141;-77
2023/01/17 09:39:02;;;;;;;1.80;0.85;;;;;;;4.50;80.37;97721.53;4992727;28;20110;-76
2023/01/17 09:41:48;;;;;;;3.30;0.70;;;;;;;4.49;79.33;97712.03;5007181;28;20054;-77
2023/01/17 09:44:50;;;;;;;2.42;0.80;;;;;;;4.47;79.83;97740.00;4984025;28;20145;-76
2023/01/17 09:47:34;;;;;;;1.02;0.70;;;;;;;4.42;80.44;97705.66;4986309;28;20070;-75
2023/01/17 09:50:14;;;;;;;20.27;8.40;;;;;;;4.60;83.96;97758.06;4973466;28;20077;-79
2023/01/17 09:52:42;;;;;;;5.85;3.63;;;;;;;4.77;81.38;97751.47;5001272;28;20154;-78
2023/01/17 09:55:15;;;;;;;1.08;0.70;;;;;;;4.79;78.87;97760.84;4981745;28;20612;-80
2023/01/17 09:57:48;;;;;;;2.65;0.80;;;;;;;4.70;79.66;97752.94;4960969;28;20156;-80
2023/01/17 10:00:29;;;;;;;2.38;0.50;;;;;;;4.55;79.90;97755.84;5004307;28;20058;-80
2023/01/17 10:03:00;;;;;;;1.10;0.70;;;;;;;4.57;80.10;97773.94;4993335;28;20054;-80
2023/01/17 10:05:35;;;;;;;1.60;0.77;;;;;;;4.54;80.39;97754.16;5003213;28;20072;-80
2023/01/17 10:08:45;;;;;;;2.85;0.60;;;;;;;4.50;80.99;97763.19;5001361;28;20050;-79
2023/01/17 10:11:31;;;;;;;2.17;0.57;;;;;;;4.49;80.73;97766.72;4956705;28;20527;-80
2023/01/17 10:14:34;;;;;;;0.75;0.60;;;;;;;4.49;81.50;97784.13;4999903;28;20522;-79
2023/01/17 10:17:14;;;;;;;1.63;0.68;;;;;;;4.51;81.47;97782.25;4971674;28;20118;-82
2023/01/17 10:20:11;;;;;;;2.20;0.77;;;;;;;4.46;81.65;97779.19;4999402;28;20073;-81
2023/01/17 10:22:59;;;;;;;2.10;0.85;;;;;;;4.38;82.68;97779.78;5002093;28;20084;-81
2023/01/17 10:25:43;;;;;;;1.00;0.60;;;;;;;4.46;81.74;97800.84;4970350;28;20061;-85
2023/01/17 10:28:16;;;;;;;0.77;0.65;;;;;;;4.44;81.85;97787.09;4988482;28;20066;-82
2023/01/17 10:30:51;;;;;;;1.85;0.75;;;;;;;4.36;81.74;97796.47;5014251;28;20096;-79
2023/01/17 10:33:35;;;;;;;2.33;0.93;;;;;;;4.33;82.11;97789.75;4989691;28;20052;-78
2023/01/17 10:36:24;;;;;;;1.92;0.70;;;;;;;4.36;81.55;97802.50;5008698;28;20073;-79
2023/01/17 10:38:55;;;;;;;0.70;0.50;;;;;;;4.35;82.04;97821.69;4987757;28;20074;-78
2023/01/17 10:41:39;;;;;;;15.15;10.23;;;;;;;4.43;83.72;97814.13;4980074;28;20136;-80
2023/01/17 10:44:16;;;;;;;12.35;7.70;;;;;;;4.70;81.54;97812.88;4993019;28;20070;-83
2023/01/17 10:47:11;;;;;;;1.48;0.82;;;;;;;4.59;79.80;97818.94;4984832;28;20109;-78
2023/01/17 10:49:43;;;;;;;1.85;0.88;;;;;;;4.35;79.83;97811.28;5000112;28;20054;-78
2023/01/17 10:52:32;;;;;;;3.03;0.85;;;;;;;4.37;80.79;97821.56;5001556;28;20065;-79
2023/01/17 10:55:36;;;;;;;1.38;0.65;;;;;;;4.33;81.51;97839.22;4979344;28;20089;-78
2023/01/17 10:58:13;;;;;;;1.92;0.80;;;;;;;4.22;80.85;97821.81;4984787;28;20081;-80
2023/01/17 11:01:18;;;;;;;1.25;0.52;;;;;;;4.15;81.05;97838.06;4977121;28;20123;-82
2023/01/17 11:03:53;;;;;;;1.17;0.63;;;;;;;4.12;81.60;97854.72;4983297;28;20053;-78
2023/01/17 11:06:59;;;;;;;0.60;0.40;;;;;;;4.02;82.11;97843.38;4965331;28;20132;-79
2023/01/17 11:09:39;;;;;;;1.17;0.70;;;;;;;3.99;82.54;97841.81;4989381;28;20058;-79
2023/01/17 11:12:45;;;;;;;7.25;4.22;;;;;;;3.99;82.39;97846.19;4989200;28;20126;-79
2023/01/17 11:15:38;;;;;;;1.67;0.98;;;;;;;3.96;83.02;97843.81;4971344;28;20046;-79
2023/01/17 11:18:14;;;;;;;1.85;0.60;;;;;;;4.01;82.81;97844.31;4991690;28;20060;-80
2023/01/17 11:20:46;;;;;;;1.88;0.85;;;;;;;3.98;83.22;97861.00;4976141;28;20107;-79
2023/01/17 11:23:31;;;;;;;1.33;0.80;;;;;;;3.98;83.63;97863.59;4982022;28;20073;-79
2023/01/17 11:26:04;;;;;;;0.88;0.50;;;;;;;3.89;83.43;97856.47;4965880;28;20614;-80
2023/01/17 11:28:34;;;;;;;2.03;0.60;;;;;;;3.87;85.15;97873.97;4997146;28;20248;-79
2023/01/17 11:31:25;;;;;;;2.58;0.65;;;;;;;3.69;86.87;97873.63;4975851;28;20054;-79
2023/01/17 11:34:23;;;;;;;1.80;0.73;;;;;;;3.67;87.83;97869.44;4967257;28;20085;-79
2023/01/17 11:37:16;;;;;;;3.15;0.57;;;;;;;3.48;90.20;97883.00;5001472;28;20243;-80
2023/01/17 11:39:47;;;;;;;3.90;0.65;;;;;;;3.40;90.50;97864.53;4986492;28;20057;-77
2023/01/17 11:42:40;;;;;;;2.45;0.85;;;;;;;3.37;91.81;97886.38;4983669;28;20050;-78
2023/01/17 11:45:26;;;;;;;2.83;0.73;;;;;;;3.36;92.44;97883.88;4978483;28;20043;-78
2023/01/17 11:48:06;;;;;;;1.40;0.68;;;;;;;3.23;92.15;97891.75;4976927;28;20060;-79
2023/01/17 11:50:43;;;;;;;2.55;0.75;;;;;;;2.91;93.17;97899.28;5009005;28;20148;-78
2023/01/17 11:53:15;;;;;;;2.80;0.82;;;;;;;2.75;93.87;97902.97;4972890;28;20058;-79
2023/01/17 11:56:04;;;;;;;1.58;0.70;;;;;;;2.75;94.51;97904.72;4975722;28;20077;-79
2023/01/17 11:58:37;;;;;;;1.42;0.68;;;;;;;2.80;94.30;97905.25;4995559;28;21793;-78
2023/01/17 12:01:46;;;;;;;2.75;0.90;;;;;;;2.93;94.58;97900.84;4994089;28;20242;-81
2023/01/17 12:04:26;;;;;;;3.20;0.80;;;;;;;2.99;95.42;97902.16;4971545;28;20050;-78
2023/01/17 12:07:38;;;;;;;3.67;0.80;;;;;;;3.09;95.75;97895.34;4991676;28;20054;-78
2023/01/17 12:10:29;;;;;;;2.78;1.10;;;;;;;3.11;95.73;97897.81;4989550;28;20038;-79
2023/01/17 12:16:31;;;;;;;2.55;0.88;;;;;;;3.49;94.59;97905.47;5003953;28;20072;-78
2023/01/17 12:19:32;;;;;;;1.63;0.85;;;;;;;3.97;92.46;97903.59;5005709;28;20668;-77
2023/01/17 12:22:25;;;;;;;1.88;0.90;;;;;;;4.48;89.08;97908.34;4999839;28;20134;-80
2023/01/17 12:24:59;;;;;;;1.63;0.90;;;;;;;4.60;87.50;97909.19;4995788;28;20057;-77
2023/01/17 12:27:54;;;;;;;1.90;1.08;;;;;;;4.47;87.36;97913.69;5012876;28;20057;-78
2023/01/17 12:31:09;;;;;;;3.13;1.08;;;;;;;4.48;87.88;97918.78;5022942;28;20117;-78
2023/01/17 12:34:03;;;;;;;2.00;0.88;;;;;;;4.25;87.39;97922.31;4960708;28;20112;-79
2023/01/17 12:36:52;;;;;;;;;;;;;;;4.06;88.52;97928.09;5014225;28;20070;-78
2023/01/17 12:39:26;;;;;;;0.82;0.68;;;;;;;3.96;89.68;97935.78;5015462;28;19942;-79
2023/01/17 12:42:35;;;;;;;3.72;0.90;;;;;;;3.86;88.86;97939.97;4998630;28;20157;-78
2023/01/17 12:45:08;;;;;;;1.88;0.98;;;;;;;3.73;89.70;97942.66;4993447;28;20046;-78
2023/01/17 12:47:41;;;;;;;2.08;0.93;;;;;;;3.77;89.79;97940.66;4992301;28;20437;-79
2023/01/17 12:50:21;;;;;;;4.03;1.20;;;;;;;3.81;89.39;97948.13;4985725;28;20053;-78
2023/01/17 12:53:24;;;;;;;4.07;1.02;;;;;;;3.80;89.82;97941.28;5003085;28;20062;-77
2023/01/17 12:56:15;;;;;;;3.25;0.95;;;;;;;3.78;87.92;97939.72;4977955;28;20123;-79
2023/01/17 12:59:03;;;;;;;2.33;1.13;;;;;;;3.76;85.65;97942.44;4973523;28;20069;-78
2023/01/17 13:01:38;;;;;;;1.40;0.88;;;;;;;3.76;86.16;97945.03;4974099;28;20074;-80
2023/01/17 13:04:23;;;;;;;3.47;1.25;;;;;;;3.86;86.51;97954.78;5006661;28;20490;-78
2023/01/17 13:06:59;;;;;;;3.17;1.23;;;;;;;3.87;84.61;97957.25;5003918;28;20173;-77
2023/01/17 13:09:31;;;;;;;4.13;0.88;;;;;;;3.87;86.09;97959.84;4994675;28;20074;-78
2023/01/17 13:12:03;;;;;;;2.95;1.30;;;;;;;3.83;83.75;97955.84;4983313;28;20055;-79
2023/01/17 13:14:31;;;;;;;5.13;1.48;;;;;;;3.90;82.86;97972.66;5022241;28;20054;-78
2023/01/17 13:17:33;;;;;;;3.88;1.17;;;;;;;3.94;81.68;97973.25;4986161;28;20043;-78
2023/01/17 13:20:10;;;;;;;6.78;1.42;;;;;;;4.11;82.02;97978.03;4981070;28;20228;-80
2023/01/17 13:22:39;;;;;;;1.75;0.90;;;;;;;4.28;80.36;97980.22;5001683;28;20165;-80
2023/01/17 13:25:37;;;;;;;6.20;1.10;;;;;;;4.22;79.65;97969.41;5007291;28;20049;-80
2023/01/17 13:28:12;;;;;;;6.53;1.08;;;;;;;4.19;80.16;97977.47;4965522;28;20053;-79
2023/01/17 13:31:07;;;;;;;7.82;1.90;;;;;;;4.17;80.46;97974.97;5011664;28;20125;-79
2023/01/17 13:33:59;;;;;;;7.78;1.63;;;;;;;4.50;80.48;97981.16;5001873;28;20061;-79
2023/01/17 13:36:56;;;;;;;4.75;1.05;;;;;;;5.05;78.31;97992.56;5002177;28;20097;-79
2023/01/17 13:39:31;;;;;;;3.33;1.00;;;;;;;5.42;77.36;97994.88;4995857;28;20658;-80
2023/01/17 13:42:11;;;;;;;8.40;1.00;;;;;;;5.28;75.78;98003.78;4979138;28;20054;-78
2023/01/17 13:44:39;;;;;;;2.10;0.95;;;;;;;5.13;77.47;98004.97;4997001;28;20111;-79
2023/01/17 13:47:10;;;;;;;4.10;1.30;;;;;;;5.06;76.48;98022.91;4982474;28;20049;-80
2023/01/17 13:49:37;;;;;;;4.93;1.15;;;;;;;4.98;75.39;98013.06;5001091;28;20060;-78
2023/01/17 13:52:17;;;;;;;2.50;0.98;;;;;;;4.84;75.83;98021.13;5003221;28;20058;-78
2023/01/17 13:54:51;;;;;;;7.43;1.20;;;;;;;4.69;77.22;98022.31;5003433;28;20522;-79
2023/01/17 19:30:50;;;;;;;22.42;9.20;;;;;;;2.44;79.80;98283.38;5001261;28;20083;-80
2023/01/17 21:01:47;;;;;;;17.67;8.90;;;;;;;1.89;80.86;98335.25;4980202;28;20056;-80
